Time;durP1;ratioP1;P1;durP2;ratioP2;P2;SDS_P1;SDS_P2;PMS_P1;PMS_P2;Temp;Humidity;BMP_temperature;BMP_pressure;BME280_temperature;BME280_humidity;BME280_pressure;Samples;Min_cycle;Max_cycle;Signal;HPM_P1;HPM_P2
2022/11/04 00:00:23;;;;;;;3.60;1.70;;;;;;;8.82;100.00;100151.59;5019614;28;20075;-79
2022/11/04 00:02:48;;;;;;;3.28;1.50;;;;;;;8.61;100.00;100137.56;5032976;28;20104;-75
2022/11/04 00:05:14;;;;;;;4.47;1.20;;;;;;;8.64;100.00;100155.38;5032668;28;20030;-80
2022/11/04 00:12:23;;;;;;;3.30;0.93;;;;;;;8.50;100.00;100143.41;5036839;28;20091;-80
2022/11/04 00:13:08;;;;;;;3.45;1.13;;;;;;;8.51;100.00;100152.78;5036548;28;20473;-79
2022/11/04 00:18:31;;;;;;;1.35;0.85;;;;;;;8.52;100.00;100169.03;4956204;28;20039;-82
2022/11/04 00:29:08;;;;;;;2.92;1.10;;;;;;;8.55;100.00;100171.41;4956594;28;20083;-80
2022/11/04 00:34:17;;;;;;;1.75;1.08;;;;;;;8.41;100.00;100166.34;4956155;29;20042;-79
2022/11/04 00:36:43;;;;;;;3.80;1.50;;;;;;;8.39;100.00;100171.59;4955798;28;20047;-79
2022/11/04 00:39:08;;;;;;;4.35;1.88;;;;;;;8.42;100.00;100179.09;4955973;29;20471;-79
2022/11/04 00:41:33;;;;;;;4.20;1.85;;;;;;;8.37;100.00;100185.50;4955983;28;20086;-78
2022/11/04 00:44:03;;;;;;;6.85;3.88;;;;;;;8.43;100.00;100193.63;4955997;28;20032;-79
2022/11/04 00:46:30;;;;;;;8.18;5.13;;;;;;;8.39;100.00;100191.34;4955777;28;20035;-81
2022/11/04 00:48:56;;;;;;;11.90;6.80;;;;;;;8.34;100.00;100184.75;4939826;29;20031;-80
2022/11/04 00:51:22;;;;;;;10.95;7.38;;;;;;;8.38;100.00;100190.53;4955454;28;20105;-79
2022/11/04 00:53:48;;;;;;;12.20;8.43;;;;;;;8.28;100.00;100181.72;4958600;28;20038;-80
2022/11/04 00:56:13;;;;;;;14.20;9.35;;;;;;;8.29;100.00;100186.75;5035887;28;20021;-79
2022/11/04 00:58:39;;;;;;;15.70;10.57;;;;;;;8.28;100.00;100195.41;5035995;28;20056;-79
2022/11/04 01:01:09;;;;;;;17.95;11.90;;;;;;;8.22;100.00;100193.22;5035566;28;20029;-78
2022/11/04 01:03:35;;;;;;;19.40;12.13;;;;;;;8.29;100.00;100196.22;5035674;28;20025;-77
2022/11/04 01:06:00;;;;;;;18.83;12.40;;;;;;;8.28;100.00;100192.84;5035500;28;20096;-82
2022/11/04 01:08:25;;;;;;;20.13;13.48;;;;;;;8.32;100.00;100194.28;5035622;28;20022;-81
2022/11/04 01:10:51;;;;;;;19.83;14.13;;;;;;;8.38;100.00;100200.81;5035491;28;20026;-82
2022/11/04 01:13:16;;;;;;;23.83;16.98;;;;;;;8.20;100.00;100165.94;5035336;28;20030;-80
2022/11/04 01:15:41;;;;;;;24.85;17.08;;;;;;;8.50;100.00;100204.34;5035395;28;20159;-80
2022/11/04 01:18:07;;;;;;;24.85;17.20;;;;;;;8.51;100.00;100204.25;5035043;28;20476;-81
2022/11/04 01:20:32;;;;;;;22.42;16.35;;;;;;;8.49;100.00;100203.53;5034961;28;20041;-82
2022/11/04 01:22:58;;;;;;;21.73;15.55;;;;;;;8.52;100.00;100208.47;5035233;28;20052;-83
2022/11/04 01:25:23;;;;;;;25.63;15.75;;;;;;;8.46;100.00;100214.03;5035151;28;20045;-83
2022/11/04 01:27:49;;;;;;;23.00;16.58;;;;;;;8.47;100.00;100225.97;5035185;28;20026;-82
2022/11/04 01:30:14;;;;;;;21.25;15.55;;;;;;;8.52;100.00;100220.50;5034704;28;20029;-82
2022/11/04 01:32:40;;;;;;;25.65;17.05;;;;;;;8.63;100.00;100228.38;5034922;28;20048;-81
2022/11/04 01:35:06;;;;;;;24.60;15.43;;;;;;;8.69;100.00;100229.72;5035233;28;20079;-82
2022/11/04 01:37:31;;;;;;;22.10;15.23;;;;;;;8.72;100.00;100224.38;5034729;28;20022;-82
2022/11/04 01:39:56;;;;;;;19.30;14.00;;;;;;;8.69;100.00;100215.09;5035205;28;20021;-81
2022/11/04 01:42:22;;;;;;;21.73;15.18;;;;;;;8.83;100.00;100225.31;5035000;28;20041;-79
2022/11/04 01:44:51;;;;;;;18.98;13.90;;;;;;;8.83;100.00;100216.78;5034979;28;20053;-82
2022/11/04 01:47:28;;;;;;;22.75;14.75;;;;;;;8.60;100.00;100187.41;5034471;28;20032;-82
2022/11/04 01:50:03;;;;;;;23.38;13.63;;;;;;;8.66;100.00;100220.47;5034484;28;20029;-82
2022/11/04 01:52:35;;;;;;;21.23;13.23;;;;;;;8.49;100.00;100205.28;5034557;28;20028;-82
2022/11/04 01:55:04;;;;;;;;;;;;;;;8.50;100.00;100212.91;5035249;28;20327;-82
2022/11/04 01:57:35;;;;;;;20.42;12.95;;;;;;;8.33;100.00;100213.09;5034495;28;19985;-83
2022/11/04 02:00:05;;;;;;;24.10;13.32;;;;;;;8.21;100.00;100211.31;5034571;28;20025;-82
2022/11/04 02:02:31;;;;;;;21.25;13.60;;;;;;;8.27;100.00;100224.63;5034373;28;20407;-82
2022/11/04 02:04:56;;;;;;;23.73;13.20;;;;;;;8.18;100.00;100230.34;5034666;28;20033;-82
2022/11/04 02:07:22;;;;;;;24.77;14.27;;;;;;;8.12;100.00;100235.84;5034375;28;20547;-83
2022/11/04 02:09:48;;;;;;;20.00;12.65;;;;;;;8.07;100.00;100237.91;5034259;28;20111;-83
2022/11/04 02:14:58;;;;;;;19.23;12.07;;;;;;;7.94;100.00;100237.00;5034707;28;20508;-82
2022/11/04 02:17:36;;;;;;;20.80;11.15;;;;;;;7.89;100.00;100242.44;5034529;28;20033;-82
2022/11/04 02:20:13;;;;;;;18.80;10.35;;;;;;;7.67;100.00;100214.63;5034410;28;20025;-82
2022/11/04 02:23:16;;;;;;;16.38;10.15;;;;;;;7.80;100.00;100247.31;5034082;28;20133;-82
2022/11/04 02:26:17;;;;;;;17.20;8.45;;;;;;;7.63;100.00;100231.16;5034197;28;20378;-82
2022/11/04 02:29:08;;;;;;;15.57;8.07;;;;;;;7.35;100.00;100193.44;4953783;28;20074;-81
2022/11/04 02:31:45;;;;;;;14.13;7.30;;;;;;;7.64;100.00;100255.91;4953910;29;20051;-82
2022/11/04 02:34:10;;;;;;;21.83;7.63;;;;;;;7.61;100.00;100253.53;4953797;29;20035;-81
2022/11/04 02:36:43;;;;;;;15.73;7.03;;;;;;;7.56;100.00;100250.41;4953823;29;20131;-80
2022/11/04 02:39:14;;;;;;;12.85;7.32;;;;;;;7.50;100.00;100252.53;4953578;29;20039;-79
2022/11/04 02:41:52;;;;;;;13.68;7.05;;;;;;;7.14;100.00;100210.94;4953684;29;20109;-81
2022/11/04 02:44:25;;;;;;;11.57;5.95;;;;;;;7.41;100.00;100253.91;4953623;28;20536;-81
2022/11/04 02:46:51;;;;;;;12.32;6.22;;;;;;;7.40;100.00;100260.78;4953779;29;20038;-82
2022/11/04 02:49:34;;;;;;;10.20;6.43;;;;;;;7.23;100.00;100231.88;4953567;28;20031;-82
2022/11/04 02:52:06;;;;;;;14.25;6.05;;;;;;;7.36;100.00;100261.84;4953387;29;20138;-81
2022/11/04 02:54:47;;;;;;;10.45;5.45;;;;;;;7.20;100.00;100238.00;4953177;29;20031;-81
2022/11/04 02:57:18;;;;;;;11.75;5.47;;;;;;;7.26;100.00;100257.34;4953292;29;20051;-82
2022/11/04 02:59:49;;;;;;;14.77;6.68;;;;;;;7.11;100.00;100236.81;4953421;29;20031;-81
2022/11/04 03:02:20;;;;;;;15.23;6.07;;;;;;;7.25;100.00;100268.53;4953311;29;20038;-82
2022/11/04 03:04:50;;;;;;;14.30;6.72;;;;;;;7.20;100.00;100263.69;5011110;28;20037;-82
2022/11/04 03:07:22;;;;;;;12.50;6.30;;;;;;;6.92;100.00;100222.56;5033265;28;20389;-83
2022/11/04 03:09:51;;;;;;;13.07;6.82;;;;;;;7.02;100.00;100246.78;5033054;28;20354;-81
2022/11/04 03:12:21;;;;;;;12.27;6.30;;;;;;;7.16;100.00;100270.72;5033277;28;20029;-82
2022/11/04 03:14:56;;;;;;;13.23;5.80;;;;;;;6.94;100.00;100236.94;5014838;28;20033;-81
2022/11/04 03:17:30;;;;;;;14.20;6.00;;;;;;;7.04;100.00;100268.03;5033242;28;20027;-82
2022/11/04 03:19:58;;;;;;;16.30;6.25;;;;;;;6.81;100.00;100233.44;5032956;28;20037;-80
2022/11/04 03:22:35;;;;;;;10.85;5.68;;;;;;;7.04;100.00;100284.28;5033395;28;20033;-78
2022/11/04 03:25:04;;;;;;;10.75;5.60;;;;;;;6.92;100.00;100271.31;5032604;28;20069;-78
2022/11/04 03:27:48;;;;;;;11.32;4.97;;;;;;;7.01;100.00;100287.03;5033053;28;20069;-81
2022/11/04 03:30:19;;;;;;;10.50;5.38;;;;;;;6.86;100.00;100270.72;5032919;28;20032;-78
2022/11/04 03:32:59;;;;;;;11.48;5.57;;;;;;;6.96;100.00;100288.19;5033374;28;20031;-81
2022/11/04 03:35:26;;;;;;;10.27;4.65;;;;;;;6.83;100.00;100280.34;5032992;28;20025;-82
2022/11/04 03:37:52;;;;;;;10.95;4.30;;;;;;;6.70;100.00;100262.25;5033015;28;20025;-81
2022/11/04 03:40:19;;;;;;;9.70;4.32;;;;;;;6.68;100.00;100264.06;5032750;28;20032;-81
2022/11/04 03:43:14;;;;;;;14.38;4.18;;;;;;;6.75;100.00;100274.81;5035461;28;20018;-82
2022/11/04 03:45:40;;;;;;;10.85;3.95;;;;;;;6.83;100.00;100295.75;5034698;28;20047;-82
2022/11/04 03:48:06;;;;;;;10.77;3.92;;;;;;;6.75;100.00;100285.09;5037187;28;20049;-83
2022/11/04 03:50:39;;;;;;;11.40;3.97;;;;;;;6.82;100.00;100300.06;5036933;28;20362;-82
2022/11/04 03:53:04;;;;;;;11.75;4.00;;;;;;;6.77;100.00;100288.38;5036890;28;20027;-79
2022/11/04 03:55:56;;;;;;;14.80;4.05;;;;;;;6.75;100.00;100296.16;5036522;28;20457;-78
2022/11/04 03:58:57;;;;;;;10.05;3.83;;;;;;;6.76;100.00;100304.69;5029534;28;20033;-82
2022/11/04 04:01:44;;;;;;;10.05;4.10;;;;;;;6.73;100.00;100302.31;5036795;28;20029;-81
2022/11/04 04:04:37;;;;;;;15.00;4.80;;;;;;;6.70;100.00;100303.31;5037175;28;20073;-80
2022/11/04 04:07:30;;;;;;;11.13;4.10;;;;;;;6.65;100.00;100294.22;5033391;28;20037;-81
2022/11/04 04:13:01;;;;;;;14.45;4.70;;;;;;;6.52;100.00;100288.94;5037040;28;20392;-82
2022/11/04 04:15:41;;;;;;;15.07;4.50;;;;;;;6.46;100.00;100291.81;5036569;28;20032;-82
2022/11/04 04:18:11;;;;;;;10.55;3.92;;;;;;;6.51;100.00;100298.38;5036658;28;20389;-81
2022/11/04 04:20:38;;;;;;;15.82;4.32;;;;;;;6.36;100.00;100285.53;5018620;28;20071;-83
2022/11/04 04:27:29;;;;;;;9.32;4.20;;;;;;;6.45;100.00;100310.69;5036563;28;20021;-82
2022/11/04 04:28:39;;;;;;;12.00;4.15;;;;;;;6.35;100.00;100312.91;5036639;28;20039;-81
2022/11/04 04:31:07;;;;;;;11.65;4.15;;;;;;;6.27;100.00;100308.19;5036146;28;20532;-82
2022/11/04 04:33:33;;;;;;;14.88;4.45;;;;;;;6.35;100.00;100322.34;5036497;28;20025;-79
2022/11/04 04:35:59;;;;;;;10.27;4.18;;;;;;;6.16;100.00;100295.13;5036381;28;20076;-81
2022/11/04 04:46:54;;;;;;;9.57;3.72;;;;;;;6.14;100.00;100334.56;5036269;28;20044;-78
2022/11/04 04:49:19;;;;;;;9.57;4.00;;;;;;;6.12;100.00;100337.22;5036240;28;20061;-79
2022/11/04 04:51:46;;;;;;;10.07;4.00;;;;;;;5.94;100.00;100312.53;5035905;28;20110;-81
2022/11/04 04:54:12;;;;;;;11.10;3.78;;;;;;;5.79;100.00;100288.50;5035444;28;20029;-82
2022/11/04 04:56:37;;;;;;;11.88;4.00;;;;;;;6.06;100.00;100329.00;5035690;28;20052;-81
2022/11/04 04:59:03;;;;;;;13.50;3.83;;;;;;;6.04;100.00;100342.75;5035837;28;20025;-81
2022/11/04 05:01:28;;;;;;;12.68;4.10;;;;;;;6.06;100.00;100346.94;5035587;28;20041;-82
2022/11/04 05:03:54;;;;;;;14.32;4.72;;;;;;;6.00;100.00;100338.69;5035733;28;20025;-81
2022/11/04 05:06:19;;;;;;;15.05;4.70;;;;;;;6.00;100.00;100345.56;5035743;28;20111;-82
2022/11/04 05:08:44;;;;;;;12.60;4.90;;;;;;;5.96;100.00;100352.56;5035671;28;20109;-83
2022/11/04 05:11:10;;;;;;;11.23;4.00;;;;;;;5.87;100.00;100334.22;5035276;28;20029;-82
2022/11/04 05:13:35;;;;;;;13.93;4.43;;;;;;;5.76;100.00;100324.53;5035691;28;20454;-81
2022/11/04 05:16:09;;;;;;;13.77;4.80;;;;;;;5.60;100.00;100305.72;5035459;28;20071;-82
2022/11/04 05:18:35;;;;;;;14.23;4.80;;;;;;;5.87;100.00;100342.75;5017202;28;20065;-82
2022/11/04 05:21:09;;;;;;;12.18;4.93;;;;;;;5.58;100.00;100317.78;5035361;28;20029;-81
2022/11/04 05:23:34;;;;;;;11.40;4.80;;;;;;;5.65;100.00;100326.81;5035424;28;20048;-79
2022/11/04 05:26:00;;;;;;;15.75;5.68;;;;;;;5.61;100.00;100330.44;5034853;28;20057;-81
2022/11/04 05:28:25;;;;;;;14.27;5.53;;;;;;;5.80;100.00;100372.16;5035313;28;20068;-81
2022/11/04 05:30:51;;;;;;;13.18;5.97;;;;;;;5.79;100.00;100374.78;5016836;28;20040;-81
2022/11/04 05:33:17;;;;;;;15.63;7.80;;;;;;;5.82;100.00;100377.22;5035236;28;20036;-80
2022/11/04 05:35:42;;;;;;;19.55;6.53;;;;;;;5.61;100.00;100338.13;5035105;28;20116;-81
2022/11/04 05:38:07;;;;;;;19.52;7.22;;;;;;;5.59;100.00;100343.31;5035117;28;20105;-80
2022/11/04 05:40:33;;;;;;;18.23;7.18;;;;;;;5.86;100.00;100382.09;5017157;28;20029;-80
2022/11/04 05:42:59;;;;;;;18.35;7.32;;;;;;;5.87;100.00;100383.75;5035132;28;20040;-81
2022/11/04 05:45:26;;;;;;;19.20;7.85;;;;;;;5.70;100.00;100356.44;5034923;28;20469;-81
2022/11/04 05:48:03;;;;;;;17.33;8.10;;;;;;;5.82;100.00;100370.34;5035071;28;20384;-80
2022/11/04 05:50:30;;;;;;;18.20;7.78;;;;;;;6.02;100.00;100395.81;5034696;28;20026;-80
2022/11/04 05:52:59;;;;;;;21.20;9.10;;;;;;;6.11;100.00;100402.22;5034763;28;20022;-79
2022/11/04 05:55:25;;;;;;;19.75;9.52;;;;;;;6.17;100.00;100396.75;5034976;28;20032;-79
2022/11/04 05:57:51;;;;;;;20.63;9.18;;;;;;;6.06;100.00;100370.84;5034412;28;20492;-80
2022/11/04 06:00:17;;;;;;;20.60;9.20;;;;;;;6.30;100.00;100400.34;5034543;28;20018;-80
2022/11/04 06:02:42;;;;;;;18.15;9.00;;;;;;;6.38;100.00;100396.53;5034631;28;20049;-79
2022/11/04 06:05:08;;;;;;;21.55;8.55;;;;;;;6.42;100.00;100405.75;5033774;28;20029;-79
2022/11/04 06:07:34;;;;;;;20.73;9.73;;;;;;;6.37;100.00;100387.19;5034439;28;20110;-79
2022/11/04 06:09:59;;;;;;;23.48;9.30;;;;;;;6.50;100.00;100401.06;5034422;28;20033;-80
2022/11/04 06:12:25;;;;;;;20.83;8.68;;;;;;;6.49;100.00;100399.38;5032903;28;20036;-78
2022/11/04 06:14:50;;;;;;;18.65;8.90;;;;;;;6.50;100.00;100396.75;5034314;28;20033;-80
2022/11/04 06:17:18;;;;;;;16.90;8.55;;;;;;;6.52;100.00;100400.06;5034420;28;20034;-81
2022/11/04 06:19:43;;;;;;;19.38;8.63;;;;;;;6.45;100.00;100390.19;5034162;28;20033;-80
2022/11/04 06:22:13;;;;;;;19.48;8.20;;;;;;;6.31;100.00;100373.81;5034127;28;20022;-79
2022/11/04 06:24:40;;;;;;;19.77;8.55;;;;;;;6.41;100.00;100401.53;5033817;28;20052;-80
2022/11/04 06:27:06;;;;;;;15.38;7.82;;;;;;;6.48;100.00;100415.66;5034033;28;20105;-81
2022/11/04 06:29:31;;;;;;;16.08;8.75;;;;;;;6.49;100.00;100417.31;5034169;28;20117;-81
2022/11/04 06:31:56;;;;;;;16.48;8.32;;;;;;;6.51;100.00;100420.66;5034197;28;20104;-81
2022/11/04 06:34:22;;;;;;;16.05;8.23;;;;;;;6.41;100.00;100409.22;5034272;28;20048;-81
2022/11/04 06:36:48;;;;;;;17.50;9.20;;;;;;;6.52;100.00;100424.88;5034254;28;20033;-81
2022/11/04 06:39:13;;;;;;;21.05;8.70;;;;;;;6.29;100.00;100392.72;5034090;28;20110;-81
2022/11/04 06:41:38;;;;;;;19.83;8.77;;;;;;;6.54;100.00;100430.75;5033885;28;20028;-82
2022/11/04 06:44:04;;;;;;;16.55;8.25;;;;;;;6.34;100.00;100403.59;5033727;28;20025;-79
2022/11/04 06:46:42;;;;;;;15.82;8.77;;;;;;;6.44;100.00;100425.28;5033642;28;20028;-82
2022/11/04 06:49:13;;;;;;;17.77;7.93;;;;;;;5.87;100.00;100329.09;5034066;28;20030;-79
2022/11/04 06:51:39;;;;;;;15.73;7.57;;;;;;;6.53;100.00;100442.75;5033627;28;20476;-82
2022/11/04 06:54:05;;;;;;;15.40;8.27;;;;;;;6.25;100.00;100392.06;5033639;28;20102;-80
2022/11/04 06:56:31;;;;;;;20.40;8.38;;;;;;;6.26;100.00;100398.84;5033740;28;20153;-79
2022/11/04 06:58:56;;;;;;;24.27;9.20;;;;;;;6.36;100.00;100406.88;5031753;28;20537;-82
2022/11/04 07:01:25;;;;;;;14.30;7.70;;;;;;;6.76;100.00;100469.75;5033814;28;20029;-82
2022/11/04 07:03:53;;;;;;;19.73;8.40;;;;;;;6.78;100.00;100456.84;5033651;28;20500;-78
2022/11/04 07:06:20;;;;;;;24.35;10.07;;;;;;;6.85;100.00;100458.19;5033591;28;20026;-79
2022/11/04 07:08:47;;;;;;;15.80;8.38;;;;;;;6.69;100.00;100426.56;5033265;28;20368;-82
2022/11/04 07:11:12;;;;;;;18.38;9.40;;;;;;;6.93;100.00;100447.50;5033621;28;20079;-82
2022/11/04 07:13:39;;;;;;;22.77;9.93;;;;;;;6.98;100.00;100448.94;5033387;28;20033;-82
2022/11/04 07:16:06;;;;;;;19.00;8.65;;;;;;;7.23;100.00;100470.69;5033224;28;20064;-79
2022/11/04 07:18:31;;;;;;;23.15;9.05;;;;;;;7.26;100.00;100473.91;5033331;28;20056;-81
2022/11/04 07:20:57;;;;;;;20.80;8.80;;;;;;;7.35;100.00;100478.53;5033342;28;20500;-80
2022/11/04 07:23:23;;;;;;;17.95;8.65;;;;;;;7.42;100.00;100473.91;5032887;28;20029;-82
2022/11/04 07:25:48;;;;;;;19.80;9.20;;;;;;;7.43;100.00;100467.84;5032992;28;20049;-80
2022/11/04 07:28:14;;;;;;;19.05;8.68;;;;;;;7.48;100.00;100471.84;5032880;28;20033;-81
2022/11/04 07:30:39;;;;;;;22.35;9.48;;;;;;;7.61;100.00;100489.94;5033358;28;20028;-80
2022/11/04 07:33:04;;;;;;;16.67;8.20;;;;;;;7.54;100.00;100474.97;5033288;28;20041;-77
2022/11/04 07:35:30;;;;;;;23.00;8.55;;;;;;;7.68;100.00;100488.69;5048424;28;20029;-80
2022/11/04 07:37:55;;;;;;;23.05;8.38;;;;;;;7.73;100.00;100488.44;5033183;28;20033;-81
2022/11/04 07:40:20;;;;;;;15.13;8.48;;;;;;;7.63;100.00;100474.44;5032807;28;20032;-80
2022/11/04 07:42:46;;;;;;;15.40;7.55;;;;;;;7.66;100.00;100476.81;5033157;28;20488;-80
2022/11/04 07:45:13;;;;;;;16.52;8.00;;;;;;;7.77;100.00;100489.94;5015007;28;20554;-79
2022/11/04 07:47:39;;;;;;;15.82;7.80;;;;;;;7.73;100.00;100483.28;5032644;28;20029;-80
2022/11/04 07:50:04;;;;;;;17.25;7.55;;;;;;;7.71;100.00;100459.41;5015497;28;20021;-80
2022/11/04 07:52:30;;;;;;;16.42;7.85;;;;;;;7.96;100.00;100499.97;5032894;28;20088;-83
2022/11/04 07:54:55;;;;;;;18.52;8.20;;;;;;;7.98;100.00;100498.16;5031364;28;20036;-78
2022/11/04 07:57:21;;;;;;;17.13;8.82;;;;;;;7.90;100.00;100492.63;5033214;28;20373;-81
2022/11/04 07:59:46;;;;;;;20.30;8.18;;;;;;;7.91;100.00;100487.38;5014741;28;20022;-79
2022/11/04 08:02:11;;;;;;;19.85;7.22;;;;;;;7.80;100.00;100471.75;5032770;28;20026;-80
2022/11/04 08:04:37;;;;;;;15.25;7.70;;;;;;;8.11;100.00;100511.94;5014613;28;20485;-76
2022/11/04 08:07:04;;;;;;;19.83;7.80;;;;;;;8.17;100.00;100514.19;5032935;28;20029;-76
2022/11/04 08:09:30;;;;;;;17.92;7.80;;;;;;;8.25;100.00;100514.53;5032435;28;20026;-79
2022/11/04 08:11:55;;;;;;;21.35;8.05;;;;;;;8.39;100.00;100515.53;5032526;28;20083;-80
2022/11/04 08:14:21;;;;;;;16.70;7.65;;;;;;;8.32;100.00;100492.69;5032621;28;20029;-77
2022/11/04 08:16:49;;;;;;;18.15;7.30;;;;;;;8.49;100.00;100514.06;5032784;28;20076;-75
2022/11/04 08:19:15;;;;;;;18.80;7.93;;;;;;;8.57;100.00;100527.31;5032272;28;20026;-81
2022/11/04 08:21:40;;;;;;;14.73;7.15;;;;;;;8.61;100.00;100531.34;5032832;28;20032;-80
2022/11/04 08:24:05;;;;;;;16.92;7.40;;;;;;;8.63;100.00;100532.91;5032610;28;20014;-81
2022/11/04 08:26:31;;;;;;;17.75;7.80;;;;;;;8.47;100.00;100506.44;5032368;28;20052;-81
2022/11/04 08:28:56;;;;;;;14.23;6.95;;;;;;;8.66;100.00;100544.78;5035264;28;20420;-79
2022/11/04 08:31:24;;;;;;;15.70;7.53;;;;;;;8.49;100.00;100516.63;5036199;28;20057;-80
2022/11/04 08:33:50;;;;;;;19.83;8.52;;;;;;;8.54;100.00;100523.16;5036075;28;20079;-80
2022/11/04 08:36:17;;;;;;;18.25;7.68;;;;;;;8.78;100.00;100558.66;5036338;28;20028;-78
2022/11/04 08:38:43;;;;;;;13.80;7.32;;;;;;;8.69;100.00;100525.75;5036193;28;20033;-81
2022/11/04 08:41:10;;;;;;;14.77;7.63;;;;;;;8.84;100.00;100551.38;5036343;28;20136;-80
2022/11/04 08:43:35;;;;;;;16.92;6.78;;;;;;;8.87;100.00;100548.66;5036009;28;20021;-80
2022/11/04 08:46:04;;;;;;;14.48;6.88;;;;;;;8.95;100.00;100555.91;5036133;28;20164;-81
2022/11/04 08:48:29;;;;;;;16.88;7.75;;;;;;;9.10;100.00;100549.81;5018127;28;20409;-79
2022/11/04 08:50:57;;;;;;;16.60;7.65;;;;;;;9.27;100.00;100556.53;5035825;28;20091;-81
2022/11/04 08:53:23;;;;;;;16.60;7.60;;;;;;;9.21;100.00;100515.66;5018285;28;20435;-81
2022/11/04 08:55:48;;;;;;;15.57;7.60;;;;;;;9.57;100.00;100558.09;5035758;28;20017;-78
2022/11/04 08:58:14;;;;;;;15.18;7.10;;;;;;;9.39;100.00;100524.81;5036040;28;20033;-80
2022/11/04 09:00:39;;;;;;;16.15;6.93;;;;;;;9.56;100.00;100552.13;5035577;28;20537;-80
2022/11/04 09:03:04;;;;;;;14.30;7.03;;;;;;;9.84;100.00;100577.00;5035567;28;20030;-80
2022/11/04 09:05:31;;;;;;;12.23;7.05;;;;;;;9.89;100.00;100569.78;5035756;28;20028;-81
2022/11/04 09:07:56;;;;;;;14.40;6.50;;;;;;;10.09;100.00;100588.28;5035536;28;20465;-81
2022/11/04 09:10:22;;;;;;;17.95;7.38;;;;;;;10.20;100.00;100596.16;5035597;28;20044;-80
2022/11/04 09:12:47;;;;;;;18.77;7.35;;;;;;;10.27;100.00;100602.63;5035539;28;20032;-79
2022/11/04 09:15:12;;;;;;;12.52;6.35;;;;;;;10.01;100.00;100556.06;5035512;28;20060;-81
2022/11/04 09:17:43;;;;;;;17.33;7.00;;;;;;;10.38;100.00;100609.66;5035814;28;20045;-81
2022/11/04 09:20:09;;;;;;;14.50;6.68;;;;;;;10.19;100.00;100560.97;5035693;28;20029;-82
2022/11/04 09:22:37;;;;;;;14.10;7.07;;;;;;;10.37;100.00;100564.13;5035226;28;20025;-81
2022/11/04 09:25:02;;;;;;;18.67;6.85;;;;;;;10.45;100.00;100573.03;5035049;28;20096;-82
2022/11/04 09:27:28;;;;;;;13.02;5.70;;;;;;;10.56;100.00;100585.22;5017239;28;20049;-81
2022/11/04 09:29:53;;;;;;;15.43;6.65;;;;;;;10.60;100.00;100594.41;5035059;28;20068;-81
2022/11/04 09:32:19;;;;;;;16.98;6.57;;;;;;;10.70;100.00;100599.78;5035534;28;20034;-81
2022/11/04 09:34:44;;;;;;;16.88;5.88;;;;;;;10.73;100.00;100610.75;5034804;28;20489;-82
2022/11/04 09:37:09;;;;;;;19.73;6.80;;;;;;;10.77;100.00;100612.19;5034892;28;20124;-82
2022/11/04 09:39:34;;;;;;;12.68;6.82;;;;;;;10.80;100.00;100600.81;5033595;28;20029;-81
2022/11/04 09:42:00;;;;;;;15.35;7.05;;;;;;;10.86;100.00;100616.72;5034818;28;20052;-80
2022/11/04 09:44:43;;;;;;;14.57;6.00;;;;;;;10.83;100.00;100624.69;5034890;28;20104;-82
2022/11/04 09:47:10;;;;;;;17.25;6.93;;;;;;;10.50;100.00;100594.19;5034840;28;20029;-82
2022/11/04 09:49:40;;;;;;;17.40;6.90;;;;;;;10.40;100.00;100592.31;5034684;28;20461;-81
2022/11/04 09:52:18;;;;;;;17.38;6.55;;;;;;;10.45;100.00;100621.25;5034784;28;20025;-84
2022/11/04 09:54:53;;;;;;;17.08;6.72;;;;;;;10.48;100.00;100632.19;5034642;28;20025;-83
2022/11/04 09:57:19;;;;;;;14.23;6.72;;;;;;;10.66;100.00;100657.72;5016337;28;20033;-81
2022/11/04 09:59:48;;;;;;;17.88;7.43;;;;;;;10.63;100.00;100664.75;5016657;28;20045;-81
2022/11/04 10:02:53;;;;;;;17.08;7.43;;;;;;;10.67;100.00;100659.38;5034530;28;20086;-81
2022/11/04 10:05:42;;;;;;;20.45;7.78;;;;;;;10.67;100.00;100665.38;4972092;28;20082;-79
2022/11/04 10:08:22;;;;;;;19.65;8.10;;;;;;;10.69;100.00;100663.50;4973588;28;20039;-79
2022/11/04 10:10:59;;;;;;;15.38;7.50;;;;;;;10.75;100.00;100667.47;4973431;28;20038;-81
2022/11/04 10:13:39;;;;;;;14.90;7.60;;;;;;;10.79;100.00;100663.72;4973142;28;20027;-80
2022/11/04 10:16:34;;;;;;;17.42;7.50;;;;;;;10.90;100.00;100663.84;4972831;28;20038;-80
2022/11/04 10:19:14;;;;;;;15.32;7.57;;;;;;;11.00;100.00;100667.47;4969086;28;20038;-81
2022/11/04 10:21:51;;;;;;;18.23;7.15;;;;;;;11.04;100.00;100668.09;4973275;28;20030;-80
2022/11/04 10:24:28;;;;;;;20.00;8.60;;;;;;;11.16;100.00;100668.09;4972974;28;20090;-79
2022/11/04 10:27:02;;;;;;;21.35;8.15;;;;;;;11.17;100.00;100648.22;4972845;28;20030;-79
2022/11/04 10:29:30;;;;;;;14.73;8.05;;;;;;;11.40;100.00;100672.50;4973194;28;20038;-81
2022/11/04 10:32:00;;;;;;;19.58;8.35;;;;;;;11.27;98.91;100638.09;4972706;28;20034;-81
2022/11/04 10:34:44;;;;;;;15.65;8.07;;;;;;;11.34;98.77;100652.25;4972843;28;20483;-77
2022/11/04 10:37:11;;;;;;;18.50;7.78;;;;;;;11.37;97.00;100657.22;4973018;28;20035;-78
2022/11/04 10:39:42;;;;;;;21.10;8.80;;;;;;;11.40;97.42;100650.06;4973126;28;20157;-78
2022/11/04 10:42:15;;;;;;;16.65;8.10;;;;;;;11.67;97.03;100693.88;5033859;28;20043;-77
2022/11/04 10:44:40;;;;;;;26.77;8.65;;;;;;;11.64;95.91;100675.16;5033694;28;20032;-79
2022/11/04 10:47:39;;;;;;;24.33;9.00;;;;;;;11.81;96.02;100694.72;5039996;23;20053;-79
2022/11/04 10:50:11;;;;;;;18.58;8.70;;;;;;;11.94;96.44;100698.91;5053238;23;20061;-80
2022/11/04 10:52:37;;;;;;;15.70;8.80;;;;;;;12.04;94.54;100699.09;5053592;28;20041;-78
2022/11/04 10:55:10;;;;;;;18.67;9.02;;;;;;;11.87;94.25;100656.28;5073573;28;20028;-81
2022/11/04 10:57:36;;;;;;;19.23;8.70;;;;;;;12.25;92.22;100705.31;5073484;28;20032;-80
2022/11/04 11:00:04;;;;;;;17.52;8.75;;;;;;;12.34;91.85;100707.25;5073687;28;20035;-80
2022/11/04 11:02:35;;;;;;;18.83;8.40;;;;;;;12.44;90.13;100711.75;5073244;28;20023;-80
2022/11/04 11:05:18;;;;;;;16.40;8.10;;;;;;;12.51;90.81;100707.78;5073626;28;20024;-81
2022/11/04 11:07:45;;;;;;;14.18;8.20;;;;;;;12.52;87.99;100706.84;5055464;28;20392;-81
2022/11/04 11:10:26;;;;;;;15.57;8.43;;;;;;;12.40;89.99;100703.41;5073299;28;20107;-77
2022/11/04 11:13:05;;;;;;;14.82;8.82;;;;;;;12.33;89.95;100702.19;5073608;28;20070;-77
2022/11/04 11:15:34;;;;;;;22.30;11.32;;;;;;;12.38;91.21;100704.41;5073541;28;20017;-78
2022/11/04 11:18:14;;;;;;;18.80;10.48;;;;;;;12.04;90.60;100668.03;5073154;28;20032;-77
2022/11/04 11:20:42;;;;;;;21.08;12.70;;;;;;;12.02;88.83;100688.03;5071600;28;20119;-80
2022/11/04 11:23:32;;;;;;;18.15;10.82;;;;;;;12.01;90.23;100707.91;5073577;28;20460;-77
2022/11/04 11:25:58;;;;;;;21.42;11.02;;;;;;;11.89;89.68;100713.09;5073214;28;20174;-76
2022/11/04 11:28:25;;;;;;;19.52;11.52;;;;;;;11.87;89.62;100714.97;5073172;28;20060;-77
2022/11/04 11:30:53;;;;;;;20.05;11.63;;;;;;;11.87;89.76;100714.97;5073119;28;20028;-78
2022/11/04 11:33:26;;;;;;;21.02;11.82;;;;;;;11.75;88.17;100681.25;5072767;28;20464;-77
2022/11/04 11:36:03;;;;;;;26.92;12.50;;;;;;;11.92;88.47;100693.03;5073054;28;20498;-76
2022/11/04 11:38:33;;;;;;;20.42;11.70;;;;;;;11.97;89.15;100706.44;5073281;28;20376;-77
2022/11/04 11:41:05;;;;;;;24.00;12.25;;;;;;;12.01;89.64;100707.91;5072746;28;20020;-76
2022/11/04 11:43:33;;;;;;;18.95;12.93;;;;;;;12.07;88.85;100701.44;5073033;28;20048;-77
2022/11/04 11:45:59;;;;;;;20.13;11.23;;;;;;;12.10;88.85;100701.25;5072725;28;20483;-77
2022/11/04 11:48:39;;;;;;;16.77;11.20;;;;;;;12.10;88.47;100701.25;5054800;28;20047;-77
2022/11/04 11:51:05;;;;;;;17.65;11.30;;;;;;;11.94;90.15;100683.38;5072470;28;20135;-75
2022/11/04 11:53:37;;;;;;;19.80;11.80;;;;;;;12.01;89.92;100714.84;5072851;28;20025;-79
2022/11/04 11:56:09;;;;;;;20.35;11.07;;;;;;;11.97;90.15;100711.63;5072841;28;20048;-78
2022/11/04 11:58:51;;;;;;;23.85;12.20;;;;;;;11.94;88.42;100722.19;5054689;28;20150;-77